Time;durP1;ratioP1;P1;durP2;ratioP2;P2;SDS_P1;SDS_P2;PMS_P1;PMS_P2;Temp;Humidity;BMP_temperature;BMP_pressure;BME280_temperature;BME280_humidity;BME280_pressure;Samples;Min_cycle;Max_cycle;Signal;HPM_P1;HPM_P2
2022/10/27 00:02:10;;;;;;;14.20;5.63;;;;;;;9.92;90.73;101336.94;4909565;28;20110;-61
2022/10/27 00:04:54;;;;;;;15.07;5.32;;;;;;;10.16;90.23;101340.50;4907037;28;20052;-62
2022/10/27 00:07:54;;;;;;;19.23;6.22;;;;;;;10.34;89.10;101327.50;4916384;28;20048;-60
2022/10/27 00:10:35;;;;;;;13.90;5.63;;;;;;;10.39;88.14;101329.25;4951884;28;20040;-61
2022/10/27 00:13:20;;;;;;;19.50;6.32;;;;;;;10.48;88.04;101331.84;4926236;28;20090;-60
2022/10/27 00:16:14;;;;;;;14.98;6.30;;;;;;;10.64;88.07;101320.56;4879641;28;20049;-61
2022/10/27 00:19:26;;;;;;;21.10;5.03;;;;;;;10.72;86.81;101316.19;4956509;28;20062;-60
2022/10/27 00:22:18;;;;;;;14.55;4.07;;;;;;;10.43;85.58;101273.50;4937989;28;20099;-61
2022/10/27 00:25:00;;;;;;;14.20;4.32;;;;;;;10.75;85.29;101317.94;4941029;28;20040;-62
2022/10/27 00:27:43;;;;;;;15.10;4.50;;;;;;;10.83;85.03;101318.78;4944241;28;20048;-61
2022/10/27 00:33:09;;;;;;;8.65;2.92;;;;;;;11.00;83.57;101305.72;4938840;28;20048;-61
2022/10/27 00:36:08;;;;;;;6.18;2.40;;;;;;;10.76;82.93;101270.03;4926959;28;20050;-62
2022/10/27 00:38:57;;;;;;;13.15;3.70;;;;;;;10.90;83.30;101304.84;4933305;28;20056;-62
2022/10/27 00:41:51;;;;;;;17.33;5.20;;;;;;;10.71;83.44;101277.00;4912083;28;20087;-62
2022/10/27 00:44:49;;;;;;;19.52;3.90;;;;;;;10.84;83.23;101283.09;4863916;28;20059;-61
2022/10/27 00:47:34;;;;;;;10.50;3.03;;;;;;;10.90;82.84;101303.97;4947780;28;20435;-61
2022/10/27 00:50:20;;;;;;;11.32;3.45;;;;;;;10.93;83.00;101303.97;4947160;28;20048;-63
2022/10/27 00:52:57;;;;;;;;;;;;;;;10.92;82.85;101307.47;4945865;27;20486;-61
2022/10/27 00:55:45;;;;;;;9.65;3.70;;;;;;;10.96;82.73;101293.53;4957039;27;20257;-61
2022/10/27 00:58:44;;;;;;;16.38;3.60;;;;;;;10.93;82.22;101298.75;4935234;28;20059;-61
2022/10/27 01:01:42;;;;;;;14.15;3.33;;;;;;;10.87;82.06;101283.94;4932782;28;20044;-60
2022/10/27 01:04:26;;;;;;;10.57;3.17;;;;;;;11.00;82.08;101287.41;4935834;28;20088;-60
2022/10/27 01:07:33;;;;;;;9.10;3.90;;;;;;;11.18;82.36;101289.09;4941362;28;20210;-62
2022/10/27 01:10:18;;;;;;;15.93;4.05;;;;;;;11.21;81.40;101282.13;4913535;28;20051;-63
2022/10/27 01:12:57;;;;;;;;;;;;;;;11.23;81.27;101282.09;4882054;28;20129;-60
2022/10/27 01:15:46;;;;;;;16.80;3.97;;;;;;;11.26;81.33;101270.75;4957952;28;19915;-61
2022/10/27 01:18:54;;;;;;;13.63;2.92;;;;;;;11.21;81.17;101263.81;4901963;28;20041;-62
2022/10/27 01:21:59;;;;;;;18.08;3.97;;;;;;;11.22;81.22;101268.16;4917773;28;20070;-61
2022/10/27 01:25:07;;;;;;;14.02;2.83;;;;;;;11.23;81.15;101267.31;4865817;28;20111;-62
2022/10/27 01:28:21;;;;;;;14.32;2.97;;;;;;;11.22;81.00;101264.69;4910150;28;20060;-61
2022/10/27 01:31:25;;;;;;;11.82;3.78;;;;;;;11.13;81.30;101259.47;4919317;28;20086;-62
2022/10/27 01:34:33;;;;;;;16.98;3.90;;;;;;;11.10;81.47;101255.13;4913212;28;20072;-62
2022/10/27 01:37:36;;;;;;;10.88;3.05;;;;;;;11.09;81.83;101256.00;4872369;28;20048;-62
2022/10/27 01:40:25;;;;;;;14.25;3.85;;;;;;;11.13;82.13;101244.66;4937702;28;20509;-62
2022/10/27 01:43:15;;;;;;;13.65;3.58;;;;;;;11.16;81.82;101249.88;4941174;28;20083;-61
2022/10/27 01:46:07;;;;;;;12.65;3.42;;;;;;;11.08;81.41;101249.00;4909550;28;20054;-62
2022/10/27 01:48:52;;;;;;;17.80;3.25;;;;;;;10.93;81.63;101243.81;4948343;28;20056;-61
2022/10/27 01:51:34;;;;;;;12.45;2.90;;;;;;;10.99;81.76;101246.44;4924849;28;20451;-61
2022/10/27 01:54:15;;;;;;;16.73;3.30;;;;;;;11.04;81.85;101239.47;4905525;28;20470;-62
2022/10/27 01:57:09;;;;;;;15.07;3.47;;;;;;;11.12;81.93;101235.06;4907984;28;20346;-61
2022/10/27 02:00:09;;;;;;;8.55;2.90;;;;;;;11.18;81.59;101231.53;4905921;28;20039;-61
2022/10/27 02:06:05;;;;;;;23.80;9.05;;;;;;;11.27;81.76;101228.03;4822666;28;20854;-60
2022/10/27 02:09:15;;;;;;;19.02;8.60;;;;;;;11.30;81.57;101220.19;4840116;28;20043;-61
2022/10/27 02:12:08;;;;;;;14.82;3.63;;;;;;;11.30;81.02;101226.28;4829835;28;20477;-61
2022/10/27 02:15:00;;;;;;;14.75;3.17;;;;;;;11.33;81.03;101225.38;4854188;28;20065;-60
2022/10/27 02:18:00;;;;;;;17.73;3.85;;;;;;;11.40;81.50;101227.09;4826083;28;20061;-61
2022/10/27 02:20:58;;;;;;;10.48;2.90;;;;;;;11.51;81.10;101220.09;4847740;28;20058;-61
2022/10/27 02:27:10;;;;;;;17.83;3.20;;;;;;;11.67;80.27;101220.88;4835649;28;20152;-62
2022/10/27 02:30:08;;;;;;;18.13;4.30;;;;;;;11.65;80.15;101226.09;4868015;28;20057;-61
2022/10/27 02:32:49;;;;;;;16.20;3.97;;;;;;;11.58;80.15;101216.56;4831474;28;20051;-61
2022/10/27 02:35:31;;;;;;;12.75;3.70;;;;;;;11.53;79.97;101218.34;4838993;28;20516;-61
2022/10/27 02:38:18;;;;;;;8.02;3.20;;;;;;;11.48;79.99;101220.09;4867225;28;20060;-60
2022/10/27 02:41:16;;;;;;;20.60;4.10;;;;;;;11.40;80.01;101214.88;4903590;28;20373;-60
2022/10/27 02:46:49;;;;;;;12.48;3.33;;;;;;;11.25;80.41;101201.00;4915886;28;20048;-60
2022/10/27 02:49:52;;;;;;;16.42;3.15;;;;;;;10.88;80.96;101154.06;4910150;28;20135;-60
2022/10/27 02:52:44;;;;;;;17.35;3.53;;;;;;;11.05;81.42;101194.09;4916754;28;20111;-60
2022/10/27 02:55:35;;;;;;;16.20;3.20;;;;;;;11.06;81.58;101205.44;4888251;28;20053;-60
2022/10/27 02:58:24;;;;;;;17.52;3.38;;;;;;;11.02;81.69;101209.81;4891095;28;20064;-61
2022/10/27 03:01:08;;;;;;;16.25;4.03;;;;;;;10.95;81.78;101200.25;4897834;28;20108;-61
2022/10/27 03:03:50;;;;;;;22.45;5.68;;;;;;;10.88;81.93;101202.00;4908404;28;20080;-61
2022/10/27 03:06:36;;;;;;;16.77;4.43;;;;;;;10.85;82.60;101202.00;4920645;28;20058;-61
2022/10/27 03:09:45;;;;;;;18.50;4.50;;;;;;;10.75;82.67;101185.47;4901252;28;20187;-61
2022/10/27 03:12:38;;;;;;;19.63;7.22;;;;;;;10.79;83.14;101189.84;4919663;28;20090;-61
2022/10/27 03:15:58;;;;;;;28.73;8.05;;;;;;;10.80;83.08;101194.16;4879130;28;20052;-61
2022/10/27 03:19:00;;;;;;;18.75;5.53;;;;;;;10.80;83.34;101193.31;4893504;28;20080;-60
2022/10/27 03:22:14;;;;;;;14.93;5.85;;;;;;;10.79;83.48;101195.06;4931941;28;20046;-61
2022/10/27 03:24:59;;;;;;;19.63;5.60;;;;;;;10.79;83.50;101187.22;4921078;28;20103;-61
2022/10/27 03:28:17;;;;;;;25.85;8.05;;;;;;;10.79;83.30;101182.00;4927973;28;20036;-61
2022/10/27 03:34:32;;;;;;;31.20;8.15;;;;;;;10.78;83.39;101180.25;4920709;28;20052;-61
2022/10/27 03:37:34;;;;;;;32.47;9.48;;;;;;;10.77;83.60;101178.50;4928105;28;20056;-60
2022/10/27 03:40:23;;;;;;;26.00;7.50;;;;;;;10.78;83.54;101169.81;4908087;28;21143;-60
2022/10/27 03:43:07;;;;;;;18.13;6.15;;;;;;;10.74;83.31;101162.84;4950039;28;20044;-60
2022/10/27 03:46:01;;;;;;;27.50;5.70;;;;;;;10.85;83.48;101164.53;4917966;28;20060;-60
2022/10/27 03:48:40;;;;;;;24.38;4.85;;;;;;;10.93;83.50;101160.16;4926051;28;20093;-60
2022/10/27 03:54:29;;;;;;;19.63;4.93;;;;;;;11.13;83.30;101160.06;4932946;28;20049;-60
2022/10/27 03:57:26;;;;;;;19.85;4.78;;;;;;;11.18;82.90;101159.19;4913164;28;20044;-60
2022/10/27 04:00:33;;;;;;;14.30;3.72;;;;;;;11.19;82.70;101153.06;4935352;28;20119;-60
2022/10/27 04:03:14;;;;;;;24.50;4.30;;;;;;;11.25;82.94;101149.56;4933121;28;20067;-60
2022/10/27 04:06:08;;;;;;;19.38;4.05;;;;;;;11.32;82.64;101151.25;4941348;28;20058;-60
2022/10/27 04:08:55;;;;;;;16.85;3.70;;;;;;;11.37;82.29;101144.25;4891753;28;20061;-60
2022/10/27 04:14:30;;;;;;;11.82;3.60;;;;;;;11.48;82.04;101144.19;4900921;28;20053;-60
2022/10/27 04:17:40;;;;;;;16.77;3.72;;;;;;;11.56;82.05;101142.41;4850308;28;21105;-60
2022/10/27 04:20:40;;;;;;;16.65;5.05;;;;;;;11.56;81.51;101142.41;4915677;28;20068;-60
2022/10/27 04:23:23;;;;;;;11.20;4.10;;;;;;;11.49;81.32;101148.56;4926706;28;20049;-60
2022/10/27 04:26:00;;;;;;;13.15;3.92;;;;;;;11.43;80.75;101148.56;4921312;28;20340;-61
2022/10/27 04:28:53;;;;;;;13.00;3.65;;;;;;;11.33;80.82;101141.66;4937116;28;20043;-60
2022/10/27 04:31:50;;;;;;;17.33;3.92;;;;;;;11.31;81.07;101143.44;4913778;28;20128;-60
2022/10/27 04:34:36;;;;;;;15.63;3.92;;;;;;;11.30;81.24;101147.78;4890195;28;20048;-60
2022/10/27 04:37:27;;;;;;;13.80;3.58;;;;;;;11.31;81.36;101153.91;4880552;28;20502;-61
2022/10/27 04:40:31;;;;;;;14.23;3.65;;;;;;;11.27;81.10;101152.19;4916375;28;20044;-61
2022/10/27 04:43:13;;;;;;;11.48;3.78;;;;;;;11.28;81.37;101153.91;4908234;28;20095;-60
2022/10/27 04:45:58;;;;;;;19.75;4.28;;;;;;;11.23;81.34;101146.97;4905859;28;20037;-60
2022/10/27 04:52:01;;;;;;;10.82;4.18;;;;;;;11.25;82.16;101153.91;4928274;28;20337;-60
2022/10/27 04:54:38;;;;;;;18.60;5.13;;;;;;;11.31;82.08;101153.91;4884518;28;20155;-61
2022/10/27 04:57:37;;;;;;;17.55;4.93;;;;;;;11.30;82.09;101162.63;4876241;28;20068;-61
2022/10/27 05:00:22;;;;;;;16.75;4.70;;;;;;;11.32;82.38;101160.88;4931977;28;20037;-60
2022/10/27 05:03:25;;;;;;;16.70;4.38;;;;;;;11.32;82.29;101155.63;4905174;28;20082;-60
2022/10/27 05:06:17;;;;;;;21.50;5.25;;;;;;;11.36;82.55;101162.59;4919442;28;20194;-62
2022/10/27 05:09:08;;;;;;;14.10;4.40;;;;;;;11.33;82.43;101159.97;4974099;28;20130;-60
2022/10/27 05:11:48;;;;;;;17.35;6.00;;;;;;;11.38;82.71;101163.44;4922803;28;20067;-60
2022/10/27 05:14:40;;;;;;;23.30;5.10;;;;;;;11.34;83.00;101173.06;4898168;28;20046;-61
2022/10/27 05:17:31;;;;;;;15.25;4.43;;;;;;;11.37;83.27;101167.81;4925396;28;20064;-60
2022/10/27 05:20:37;;;;;;;;;;;;;;;11.37;83.31;101175.66;4926770;28;20109;-60
2022/10/27 05:23:26;;;;;;;22.23;4.60;;;;;;;11.35;83.42;101176.53;4944976;28;19924;-60
2022/10/27 05:26:04;;;;;;;20.13;5.32;;;;;;;11.35;83.86;101179.16;4887509;28;20237;-59
2022/10/27 05:28:51;;;;;;;23.90;5.72;;;;;;;11.32;84.05;101177.44;4960787;28;20480;-59
2022/10/27 05:32:01;;;;;;;17.25;5.85;;;;;;;10.86;84.16;101100.91;4930884;28;20051;-60
2022/10/27 05:35:01;;;;;;;18.70;6.18;;;;;;;11.21;84.32;101185.34;4856715;28;20048;-60
2022/10/27 05:37:46;;;;;;;20.27;6.72;;;;;;;11.17;84.62;101178.38;4923484;28;20039;-60
2022/10/27 05:40:33;;;;;;;25.58;6.85;;;;;;;11.12;84.71;101185.38;4923306;28;20054;-59
2022/10/27 05:43:07;;;;;;;20.42;5.95;;;;;;;10.99;85.04;101170.59;4949967;28;20055;-60
2022/10/27 05:45:59;;;;;;;20.10;5.40;;;;;;;11.02;85.33;101174.06;4951603;28;20046;-59
2022/10/27 05:48:46;;;;;;;31.10;8.80;;;;;;;11.09;85.45;101187.13;4917447;28;20387;-59
2022/10/27 05:51:45;;;;;;;33.47;8.57;;;;;;;11.10;85.87;101189.72;4962375;28;20325;-60
2022/10/27 05:55:06;;;;;;;22.02;6.43;;;;;;;11.06;85.95;101190.63;4912861;28;20086;-60
2022/10/27 05:57:56;;;;;;;20.25;6.75;;;;;;;11.02;86.03;101199.34;4919914;28;20048;-59
2022/10/27 06:00:49;;;;;;;23.10;6.68;;;;;;;10.77;86.15;101167.19;4907664;28;20048;-60
2022/10/27 06:03:38;;;;;;;21.45;6.47;;;;;;;10.89;86.34;101202.88;4910170;28;20412;-59
2022/10/27 06:06:19;;;;;;;33.40;9.40;;;;;;;10.83;86.42;101202.88;4939422;28;20052;-60
2022/10/27 06:08:54;;;;;;;27.20;8.02;;;;;;;10.72;86.86;101201.16;4933848;28;20160;-60
2022/10/27 06:11:50;;;;;;;22.42;7.93;;;;;;;10.67;87.34;101218.59;4954368;28;20051;-60
2022/10/27 06:14:34;;;;;;;21.98;7.20;;;;;;;10.65;87.87;101216.88;4903404;28;20055;-59
2022/10/27 06:17:32;;;;;;;22.67;7.82;;;;;;;10.59;87.94;101215.16;4945389;28;20311;-59
2022/10/27 06:20:13;;;;;;;25.15;7.88;;;;;;;10.57;88.10;101222.09;4943244;28;20049;-59
2022/10/27 06:23:04;;;;;;;21.85;6.60;;;;;;;10.51;88.34;101227.34;4914438;28;20120;-59
2022/10/27 06:25:49;;;;;;;22.25;7.10;;;;;;;10.45;88.49;101227.34;4883172;28;20048;-60
2022/10/27 06:28:36;;;;;;;21.13;7.32;;;;;;;10.38;88.74;101231.69;4938083;28;20058;-60
2022/10/27 06:31:29;;;;;;;20.20;6.03;;;;;;;10.36;89.09;101234.31;4927136;28;20063;-61
2022/10/27 06:34:08;;;;;;;27.45;6.05;;;;;;;10.34;89.32;101225.59;4955582;28;20051;-61
2022/10/27 06:36:59;;;;;;;22.92;5.93;;;;;;;10.31;89.41;101229.97;4935957;28;20052;-60
2022/10/27 06:39:41;;;;;;;20.95;5.82;;;;;;;10.30;89.68;101234.31;4900126;28;20048;-60
2022/10/27 06:42:21;;;;;;;16.90;5.43;;;;;;;10.31;89.53;101233.44;4931236;28;20085;-61
2022/10/27 06:45:04;;;;;;;17.75;5.93;;;;;;;10.27;89.74;101239.50;4920672;28;20054;-61
2022/10/27 06:47:46;;;;;;;27.13;6.13;;;;;;;10.24;90.11;101230.81;4927024;28;20435;-61
2022/10/27 06:50:25;;;;;;;23.13;7.50;;;;;;;10.17;90.19;101232.53;4933847;28;20043;-61
2022/10/27 06:53:21;;;;;;;24.17;9.10;;;;;;;10.13;90.45;101230.78;4900988;27;20090;-63
2022/10/27 07:01:47;;;;;;;28.38;8.48;;;;;;;9.99;91.13;101253.41;4944067;28;20112;-62
2022/10/27 07:04:36;;;;;;;23.38;8.02;;;;;;;9.94;91.34;101256.88;4930609;28;20055;-61
2022/10/27 07:07:15;;;;;;;19.58;8.65;;;;;;;9.94;91.29;101262.09;4919551;28;20053;-61
2022/10/27 07:10:01;;;;;;;22.23;8.27;;;;;;;9.87;91.59;101249.03;4942891;28;20047;-61
2022/10/27 07:12:41;;;;;;;25.05;8.43;;;;;;;9.92;91.54;101258.59;4924445;28;20055;-61
2022/10/27 07:21:41;;;;;;;20.23;7.93;;;;;;;9.81;92.16;101257.72;4909419;28;20450;-61
2022/10/27 07:24:22;;;;;;;24.48;8.40;;;;;;;9.82;92.46;101269.88;4933841;28;20123;-61
2022/10/27 07:27:04;;;;;;;26.00;8.18;;;;;;;9.74;92.50;101269.00;4949430;28;20062;-61
2022/10/27 07:29:45;;;;;;;22.98;7.93;;;;;;;9.75;92.41;101275.97;4920932;28;20059;-61
2022/10/27 07:35:58;;;;;;;20.67;7.25;;;;;;;9.68;92.80;101290.75;4966752;28;20046;-60
2022/10/27 07:38:43;;;;;;;30.70;8.27;;;;;;;9.59;92.86;101285.47;4903806;28;20057;-61
2022/10/27 07:41:21;;;;;;;17.35;7.03;;;;;;;9.52;93.08;101285.44;4920534;28;20111;-61
2022/10/27 07:44:04;;;;;;;27.05;7.47;;;;;;;9.46;93.68;101292.38;4916787;28;20044;-60
2022/10/27 07:46:54;;;;;;;22.85;8.13;;;;;;;9.44;94.29;101295.84;4919597;28;20093;-61
2022/10/27 07:49:40;;;;;;;16.90;7.53;;;;;;;9.43;94.87;101294.97;4912640;28;20126;-61
2022/10/27 07:52:24;;;;;;;18.55;7.43;;;;;;;9.44;95.02;101301.94;4879286;28;20044;-61
2022/10/27 07:55:05;;;;;;;21.70;8.90;;;;;;;9.46;95.45;101305.44;4898840;28;20055;-61
2022/10/27 07:58:04;;;;;;;24.13;9.32;;;;;;;9.47;95.64;101307.16;4936425;28;20044;-61
2022/10/27 08:00:44;;;;;;;22.40;8.18;;;;;;;9.44;95.67;101301.94;4923910;28;20112;-61
2022/10/27 08:03:24;;;;;;;15.60;6.80;;;;;;;9.53;95.79;101310.66;4924009;28;20493;-61
2022/10/27 08:06:20;;;;;;;16.23;8.23;;;;;;;9.49;95.90;101302.81;4935202;28;20133;-61
2022/10/27 08:12:09;;;;;;;14.75;7.05;;;;;;;9.57;96.26;101318.50;4865595;28;20214;-61
2022/10/27 08:14:52;;;;;;;12.05;6.60;;;;;;;9.59;96.37;101321.16;4913107;28;20109;-60
2022/10/27 08:17:31;;;;;;;21.70;7.35;;;;;;;9.58;96.52;101320.25;4945973;28;20058;-60
2022/10/27 08:20:13;;;;;;;14.57;6.40;;;;;;;9.58;96.56;101324.59;4911332;28;20619;-61
2022/10/27 08:23:04;;;;;;;16.52;6.97;;;;;;;9.58;96.78;101335.03;4864513;28;20318;-61
2022/10/27 08:26:16;;;;;;;12.82;6.20;;;;;;;9.49;96.87;101344.56;4877032;28;20049;-60
2022/10/27 08:29:01;;;;;;;21.27;6.35;;;;;;;9.35;97.39;101354.03;4866128;28;20042;-60
2022/10/27 08:31:44;;;;;;;19.98;5.90;;;;;;;9.30;97.95;101345.31;4871311;28;20056;-60
2022/10/27 08:34:25;;;;;;;17.70;6.68;;;;;;;9.31;98.42;101356.63;4870617;28;20079;-59
2022/10/27 08:36:59;;;;;;;19.42;6.50;;;;;;;9.30;98.57;101355.75;4852574;28;20077;-60
2022/10/27 08:39:46;;;;;;;14.23;5.57;;;;;;;9.23;98.70;101346.16;4885856;28;20045;-60
2022/10/27 08:42:51;;;;;;;16.48;5.85;;;;;;;9.30;98.97;101366.19;4887316;28;20056;-60
2022/10/27 08:45:30;;;;;;;19.60;5.55;;;;;;;9.25;99.17;101362.69;4885848;28;20053;-61
2022/10/27 08:48:15;;;;;;;15.48;5.18;;;;;;;9.14;99.06;101364.34;4885706;28;20049;-61
2022/10/27 08:53:58;;;;;;;15.88;5.10;;;;;;;8.89;99.11;101376.34;4887725;28;20067;-61
2022/10/27 08:56:47;;;;;;;20.02;5.65;;;;;;;8.78;99.05;101376.22;4882950;28;20640;-60
2022/10/27 08:59:35;;;;;;;28.80;8.25;;;;;;;8.64;99.16;101379.59;4939959;28;20044;-61
2022/10/27 09:02:45;;;;;;;29.20;10.13;;;;;;;8.56;99.54;101396.88;4864582;28;20049;-60
2022/10/27 09:05:55;;;;;;;25.67;7.05;;;;;;;8.51;99.81;101393.34;4938086;28;20052;-60
2022/10/27 09:08:40;;;;;;;23.02;6.60;;;;;;;8.34;99.79;101400.09;4919249;28;20115;-61
2022/10/27 09:11:23;;;;;;;22.80;6.13;;;;;;;8.25;100.00;101399.97;4934123;28;20047;-62
2022/10/27 09:14:14;;;;;;;24.50;7.72;;;;;;;8.17;100.00;101403.34;4934533;28;20043;-61
2022/10/27 09:17:00;;;;;;;24.02;7.18;;;;;;;8.14;100.00;101403.31;4926590;28;20052;-60
2022/10/27 09:19:50;;;;;;;30.95;9.18;;;;;;;8.03;100.00;101389.28;4948756;28;20050;-61
2022/10/27 09:22:50;;;;;;;30.10;8.57;;;;;;;8.06;100.00;101399.72;4917749;28;20044;-61
2022/10/27 09:25:41;;;;;;;23.55;8.57;;;;;;;8.07;100.00;101411.91;4945444;28;20060;-60
2022/10/27 09:28:27;;;;;;;;;;;;;;;8.00;100.00;101416.16;4915366;28;20040;-62
2022/10/27 09:31:10;;;;;;;23.63;7.28;;;;;;;7.88;100.00;101417.72;4878309;28;19936;-62
2022/10/27 09:34:15;;;;;;;15.30;5.07;;;;;;;7.85;100.00;101425.50;4912733;28;20056;-61
2022/10/27 09:37:12;;;;;;;21.52;4.22;;;;;;;7.78;100.00;101430.63;4901245;28;20037;-61
2022/10/27 09:49:30;;;;;;;13.18;5.00;;;;;;;7.44;100.00;101449.19;4872961;28;20045;-61
2022/10/27 09:52:15;;;;;;;14.55;4.80;;;;;;;7.38;100.00;101454.31;4874789;28;20727;-62
2022/10/27 09:54:53;;;;;;;13.77;4.57;;;;;;;7.30;100.00;101446.38;4883021;28;20071;-63
2022/10/27 09:57:33;;;;;;;13.93;4.20;;;;;;;7.21;100.00;101431.50;4877586;28;20090;-64
2022/10/27 10:00:28;;;;;;;16.10;4.95;;;;;;;7.27;100.00;101462.81;4882888;28;20050;-63
2022/10/27 10:03:36;;;;;;;10.52;4.05;;;;;;;7.22;100.00;101454.06;4886334;28;20379;-63
2022/10/27 10:09:34;;;;;;;18.83;5.63;;;;;;;7.19;100.00;101469.63;4368785;27;16651472;-62
2022/10/27 10:12:28;;;;;;;17.70;4.85;;;;;;;7.18;100.00;101470.44;4896014;28;20047;-63
2022/10/27 10:15:32;;;;;;;20.48;6.30;;;;;;;7.19;100.00;101480.00;4926897;28;20060;-64
2022/10/27 10:18:28;;;;;;;20.55;5.90;;;;;;;7.19;100.00;101479.09;4927000;28;20062;-63
2022/10/27 10:21:49;;;;;;;17.67;4.63;;;;;;;7.17;100.00;101476.50;4926724;28;20044;-63
2022/10/27 10:28:31;;;;;;;;;;;;;;;;;;;;;
2022/10/27 10:31:40;;;;;;;17.88;4.20;;;;;;;7.06;100.00;101488.44;4941621;28;20041;-64
2022/10/27 10:37:33;;;;;;;25.63;4.45;;;;;;;6.72;100.00;101467.03;4931511;28;20044;-63
2022/10/27 10:40:37;;;;;;;24.77;5.72;;;;;;;6.86;100.00;101501.97;4945148;28;20055;-63
2022/10/27 10:43:26;;;;;;;18.55;5.05;;;;;;;6.75;100.00;101493.06;4937216;28;20040;-63
2022/10/27 10:46:27;;;;;;;20.25;5.30;;;;;;;6.72;100.00;101500.81;4876683;28;20072;-64
2022/10/27 10:49:25;;;;;;;20.45;4.93;;;;;;;6.63;100.00;101498.03;4907028;28;20041;-63
2022/10/27 10:52:12;;;;;;;28.40;6.38;;;;;;;6.46;100.00;101472.63;4925754;28;20091;-63
2022/10/27 10:54:51;;;;;;;14.02;4.03;;;;;;;6.51;100.00;101502.97;4941741;28;20044;-63
2022/10/27 10:57:44;;;;;;;13.73;4.22;;;;;;;6.50;100.00;101496.03;4963554;28;20067;-63
2022/10/27 11:00:27;;;;;;;16.88;4.63;;;;;;;6.50;100.00;101506.44;4939593;28;20104;-63
2022/10/27 11:03:04;;;;;;;15.63;4.00;;;;;;;6.48;100.00;101499.47;4948352;28;20039;-63
2022/10/27 11:05:54;;;;;;;21.70;4.38;;;;;;;6.45;100.00;101499.41;4948060;28;20044;-63
2022/10/27 11:08:43;;;;;;;18.33;4.03;;;;;;;6.20;100.00;101456.50;4940917;28;20379;-63
2022/10/27 11:12:28;;;;;;;12.80;4.25;;;;;;;6.39;100.00;101494.09;4953021;28;20068;-64
2022/10/27 11:15:56;;;;;;;13.98;4.88;;;;;;;6.34;100.00;101495.75;4955242;28;20054;-63
2022/10/27 11:18:49;;;;;;;13.65;4.50;;;;;;;6.43;100.00;101516.66;4930026;28;20049;-63
2022/10/27 11:21:42;;;;;;;12.77;3.40;;;;;;;6.45;100.00;101527.09;4908023;28;20042;-63
2022/10/27 11:24:33;;;;;;;18.40;3.97;;;;;;;6.26;100.00;101502.47;4924813;28;20049;-63
2022/10/27 11:27:29;;;;;;;15.23;4.50;;;;;;;6.45;100.00;101533.16;4896380;28;20049;-64
2022/10/27 11:30:44;;;;;;;9.25;3.08;;;;;;;6.47;100.00;101530.63;4924647;28;20102;-64
2022/10/27 11:33:55;;;;;;;7.80;2.92;;;;;;;6.50;100.00;101527.19;4914968;28;20045;-63
2022/10/27 11:44:19;;;;;;;6.85;2.80;;;;;;;6.61;100.00;101547.31;4894137;28;20103;-64
2022/10/27 11:47:14;;;;;;;14.55;3.65;;;;;;;6.69;100.00;101555.31;4908931;28;20208;-64
2022/10/27 11:50:09;;;;;;;6.32;2.55;;;;;;;6.76;100.00;101562.34;4885627;28;20048;-64
2022/10/27 11:52:54;;;;;;;4.45;1.85;;;;;;;6.78;100.00;101565.84;4949282;28;20121;-64
2022/10/27 11:55:41;;;;;;;5.60;1.98;;;;;;;6.69;100.00;101557.91;4850998;28;20163;-64
2022/10/27 11:58:30;;;;;;;4.28;1.40;;;;;;;6.77;100.00;101579.72;4919755;28;20491;-63
2022/10/27 12:01:21;;;;;;;6.10;1.40;;;;;;;6.75;100.00;101593.50;4915015;28;20097;-64
2022/10/27 12:04:10;;;;;;;;;;;;;;;6.72;100.00;101601.25;4894270;28;20079;-64
2022/10/27 12:07:28;;;;;;;5.28;1.50;;;;;;;6.66;100.00;101597.69;4919328;28;19968;-65
2022/10/27 12:10:22;;;;;;;;;;;;;;;6.63;100.00;101601.91;4890071;28;21441;-65
2022/10/27 12:13:50;;;;;;;3.22;1.65;;;;;;;6.55;100.00;101614.75;4920291;28;19916;-66
2022/10/27 12:17:02;;;;;;;5.75;1.52;;;;;;;6.48;100.00;101618.03;4932130;28;20062;-64
2022/10/27 12:20:10;;;;;;;7.97;1.98;;;;;;;6.37;100.00;101625.59;4889090;28;20319;-65
2022/10/27 12:26:56;;;;;;;7.57;1.88;;;;;;;6.00;100.00;101640.28;4892804;28;20057;-63
2022/10/27 12:30:16;;;;;;;6.85;2.20;;;;;;;5.97;100.00;101650.63;4894510;28;20116;-63
2022/10/27 12:33:30;;;;;;;5.63;1.60;;;;;;;5.87;100.00;101647.72;4883269;28;20087;-62
2022/10/27 12:40:13;;;;;;;6.18;2.00;;;;;;;5.82;100.00;101666.63;4897063;28;20113;-66
2022/10/27 12:43:39;;;;;;;8.18;1.95;;;;;;;5.76;100.00;101668.19;4853378;28;20052;-65
2022/10/27 12:46:51;;;;;;;3.63;1.50;;;;;;;5.68;100.00;101672.31;4866980;28;20068;-64
2022/10/27 12:50:06;;;;;;;7.03;1.77;;;;;;;5.54;100.00;101667.63;4887453;28;20104;-63
2022/10/27 12:53:30;;;;;;;6.95;2.05;;;;;;;5.45;100.00;101680.34;4918765;28;20041;-63
2022/10/27 12:56:45;;;;;;;12.75;2.17;;;;;;;5.40;100.00;101688.00;4922311;28;20044;-63
2022/10/27 13:00:10;;;;;;;6.65;1.50;;;;;;;5.38;100.00;101702.63;4913953;28;20044;-63
2022/10/27 13:03:35;;;;;;;3.00;1.33;;;;;;;5.39;100.00;101711.25;4906289;28;20083;-63
2022/10/27 13:06:46;;;;;;;6.60;1.85;;;;;;;5.33;100.00;101721.47;4920545;28;20076;-64
2022/10/27 13:09:58;;;;;;;5.95;1.80;;;;;;;5.30;100.00;101727.44;4874315;28;20188;-64
2022/10/27 13:13:08;;;;;;;5.47;1.42;;;;;;;5.26;100.00;101729.91;4925409;28;20044;-63
2022/10/27 13:16:22;;;;;;;5.75;1.50;;;;;;;5.23;100.00;101727.22;4916426;28;20067;-62
2022/10/27 13:22:50;;;;;;;6.50;1.63;;;;;;;5.16;100.00;101740.00;4931481;28;20057;-64
2022/10/27 13:26:03;;;;;;;5.88;1.77;;;;;;;5.12;100.00;101737.28;4962029;28;20125;-63
2022/10/27 13:29:14;;;;;;;21.80;3.85;;;;;;;5.11;100.00;101741.56;4912232;28;20094;-61
2022/10/27 13:32:31;;;;;;;5.13;1.85;;;;;;;5.06;100.00;101743.16;4932764;28;20094;-64
2022/10/27 13:39:33;;;;;;;3.97;1.40;;;;;;;5.01;100.00;101746.44;4948557;28;20043;-61
2022/10/27 13:42:45;;;;;;;8.25;1.40;;;;;;;5.00;100.00;101748.16;4934689;28;20391;-63
2022/10/27 13:45:56;;;;;;;4.90;1.60;;;;;;;4.97;100.00;101753.25;4930837;28;20047;-64
2022/10/27 13:49:24;;;;;;;6.18;1.10;;;;;;;4.95;100.00;101755.78;4938407;27;20512;-64
2022/10/27 13:52:42;;;;;;;3.58;1.08;;;;;;;4.93;100.00;101757.44;4936796;28;20101;-63
2022/10/27 13:56:09;;;;;;;;;;;;;;;;;;;;;
2022/10/27 13:59:19;;;;;;;4.95;1.50;;;;;;;4.91;100.00;101773.78;4790418;28;20048;-63
2022/10/27 14:02:29;;;;;;;5.72;1.33;;;;;;;4.81;100.00;101771.72;4932397;28;20044;-63
2022/10/27 14:05:48;;;;;;;9.60;1.75;;;;;;;4.75;100.00;101773.31;4923032;28;20062;-62
2022/10/27 14:08:59;;;;;;;7.40;1.80;;;;;;;4.75;100.00;101781.06;4939601;28;20378;-63
2022/10/27 14:12:21;;;;;;;6.10;1.67;;;;;;;4.73;100.00;101768.91;4928484;28;20045;-63
2022/10/27 14:15:30;;;;;;;7.22;1.85;;;;;;;4.68;100.00;101771.34;4890258;28;20043;-62
2022/10/27 14:18:42;;;;;;;6.80;2.35;;;;;;;4.56;100.00;101755.41;4900374;28;20083;-63
2022/10/27 14:21:23;;;;;;;7.70;2.40;;;;;;;4.56;100.00;101759.72;4901496;28;20079;-63
2022/10/27 14:24:19;;;;;;;9.80;2.40;;;;;;;4.64;100.00;101774.69;4891742;28;20048;-63
2022/10/27 14:27:15;;;;;;;10.52;2.35;;;;;;;4.58;100.00;101777.06;4907718;28;20051;-63
2022/10/27 14:30:20;;;;;;;9.13;1.75;;;;;;;4.61;100.00;101784.91;4952114;28;20048;-62
2022/10/27 14:33:21;;;;;;;4.05;1.50;;;;;;;4.61;100.00;101777.16;4922883;28;20533;-64
2022/10/27 14:39:42;;;;;;;9.68;1.80;;;;;;;4.57;100.00;101777.91;4939037;28;20061;-64
2022/10/27 14:42:29;;;;;;;4.43;1.38;;;;;;;4.36;100.00;101761.66;4920515;28;20049;-64
2022/10/27 14:45:31;;;;;;;8.43;1.80;;;;;;;4.53;100.00;101788.97;4900969;28;20050;-63
2022/10/27 14:48:27;;;;;;;6.18;1.88;;;;;;;4.53;100.00;101796.75;4954032;28;20048;-64
2022/10/27 14:51:01;;;;;;;6.78;1.60;;;;;;;4.51;100.00;101794.09;4948511;28;20078;-62
2022/10/27 14:53:49;;;;;;;8.15;1.67;;;;;;;4.50;100.00;101802.69;4954422;28;20058;-64
2022/10/27 15:00:02;;;;;;;12.80;1.92;;;;;;;4.46;100.00;101799.97;4946205;28;20074;-63
2022/10/27 15:02:48;;;;;;;10.32;2.10;;;;;;;4.45;100.00;101803.38;4928771;28;20046;-63
2022/10/27 15:05:44;;;;;;;5.50;2.45;;;;;;;4.39;100.00;101798.88;4942539;28;20326;-64